createdAt,value
2023-02-07T00:00:44.684Z,69.29
2023-02-07T00:03:11.571Z,69.50
2023-02-07T00:05:38.446Z,69.64
2023-02-07T00:08:06.014Z,70.46
2023-02-07T00:10:33.360Z,70.05
2023-02-07T00:12:59.947Z,70.11
2023-02-07T00:15:27.167Z,70.52
2023-02-07T00:17:53.428Z,70.73
2023-02-07T00:20:20.864Z,70.83
2023-02-07T00:22:47.418Z,70.62
2023-02-07T00:25:13.786Z,70.99
2023-02-07T00:27:40.132Z,70.76
2023-02-07T00:30:07.144Z,71.46
2023-02-07T00:32:34.747Z,71.15
2023-02-07T00:35:01.588Z,70.89
2023-02-07T00:37:27.949Z,70.78
2023-02-07T00:39:54.414Z,71.41
2023-02-07T00:42:20.999Z,71.19
2023-02-07T00:44:47.348Z,71.18
2023-02-07T00:47:13.688Z,71.26
2023-02-07T00:49:40.071Z,71.37
2023-02-07T00:52:06.427Z,70.89
2023-02-07T00:54:32.765Z,70.92
2023-02-07T00:56:59.090Z,70.84
2023-02-07T00:59:25.538Z,71.43
2023-02-07T01:01:51.944Z,71.35
2023-02-07T01:04:18.280Z,71.52
2023-02-07T01:06:44.612Z,71.22
2023-02-07T01:09:10.932Z,71.46
2023-02-07T01:11:37.283Z,70.99
2023-02-07T01:14:03.719Z,70.86
2023-02-07T01:16:33.461Z,71.75
2023-02-07T01:19:03.390Z,70.91
2023-02-07T01:21:29.756Z,71.06
2023-02-07T01:23:57.083Z,71.17
2023-02-07T01:26:24.334Z,70.72
2023-02-07T01:28:50.849Z,71.63
2023-02-07T01:31:17.286Z,71.36
2023-02-07T01:33:43.776Z,72.13
2023-02-07T01:36:12.897Z,72.08
2023-02-07T01:38:39.560Z,72.16
2023-02-07T01:41:06.581Z,71.82
2023-02-07T01:43:33.146Z,72.20
2023-02-07T01:45:59.605Z,72.14
2023-02-07T01:48:34.354Z,72.20
2023-02-07T01:51:04.770Z,71.94
2023-02-07T01:53:34.731Z,72.50
2023-02-07T01:56:06.843Z,71.41
2023-02-07T01:58:34.233Z,71.52
2023-02-07T02:01:06.273Z,71.53
2023-02-07T02:03:37.054Z,71.97
2023-02-07T02:06:03.606Z,71.30
2023-02-07T02:08:29.961Z,71.97
2023-02-07T02:11:21.943Z,71.78
2023-02-07T02:14:21.484Z,71.75
2023-02-07T02:17:04.628Z,71.72
2023-02-07T02:20:07.981Z,71.64
2023-02-07T02:22:55.132Z,71.68
2023-02-07T02:26:02.608Z,72.43
2023-02-07T02:29:09.361Z,71.38
2023-02-07T02:32:17.253Z,71.14
2023-02-07T02:35:15.093Z,70.86
2023-02-07T02:37:59.157Z,70.43
2023-02-07T02:40:28.435Z,70.48
2023-02-07T02:43:07.080Z,70.03
2023-02-07T02:45:39.919Z,70.08
2023-02-07T02:48:10.164Z,69.12
2023-02-07T02:50:36.800Z,68.66
2023-02-07T02:53:03.153Z,69.40
2023-02-07T02:56:11.662Z,68.97
2023-02-07T02:59:20.712Z,68.53
2023-02-07T03:02:21.485Z,68.19
2023-02-07T03:05:09.732Z,67.50
2023-02-07T03:08:02.695Z,68.16
2023-02-07T03:10:31.763Z,67.49
2023-02-07T03:13:21.992Z,68.79
2023-02-07T03:16:04.175Z,67.63
2023-02-07T03:18:47.608Z,68.12
2023-02-07T03:21:29.978Z,66.84
2023-02-07T03:24:01.922Z,67.20
2023-02-07T03:26:30.505Z,67.25
2023-02-07T03:28:58.212Z,67.10
2023-02-07T03:31:28.431Z,66.98
2023-02-07T03:34:02.688Z,67.55
2023-02-07T03:36:33.903Z,68.18
2023-02-07T03:39:00.437Z,67.90
2023-02-07T03:41:33.978Z,67.32
2023-02-07T03:44:06.795Z,67.72
2023-02-07T03:46:36.752Z,67.39
2023-02-07T03:49:03.785Z,67.29
2023-02-07T03:51:30.099Z,66.06
2023-02-07T03:53:56.454Z,66.54
2023-02-07T03:56:22.762Z,67.36
2023-02-07T03:58:49.080Z,66.89
2023-02-07T04:01:15.407Z,67.05
2023-02-07T04:03:41.847Z,66.36
2023-02-07T04:06:08.390Z,66.27
2023-02-07T04:08:34.769Z,67.02
2023-02-07T04:11:03.290Z,66.41
2023-02-07T04:13:30.574Z,66.35
2023-02-07T04:15:57.353Z,67.57
2023-02-07T04:18:23.712Z,67.21
2023-02-07T04:20:50.087Z,67.30
2023-02-07T04:23:16.498Z,66.89
2023-02-07T04:25:42.816Z,67.26
2023-02-07T04:28:09.143Z,67.04
2023-02-07T04:30:35.537Z,67.50
2023-02-07T04:33:01.859Z,67.18
2023-02-07T04:35:28.207Z,67.47
2023-02-07T04:37:54.520Z,68.54
2023-02-07T04:40:20.858Z,68.95
2023-02-07T04:42:47.185Z,69.09
2023-02-07T04:45:13.560Z,68.75
2023-02-07T04:47:40.303Z,68.49
2023-02-07T04:50:06.858Z,68.34
2023-02-07T04:52:33.243Z,69.00
2023-02-07T04:54:59.633Z,68.24
2023-02-07T04:57:25.959Z,68.59
2023-02-07T04:59:52.264Z,69.07
2023-02-07T05:02:18.642Z,69.22
2023-02-07T05:04:44.986Z,68.64
2023-02-07T05:07:11.328Z,69.09
2023-02-07T05:09:37.661Z,69.01
2023-02-07T05:12:04.063Z,68.75
2023-02-07T05:14:30.576Z,68.49
2023-02-07T05:16:56.900Z,69.57
2023-02-07T05:19:23.259Z,69.13
2023-02-07T05:21:49.591Z,69.83
2023-02-07T05:24:15.972Z,69.91
2023-02-07T05:26:42.354Z,69.86
2023-02-07T05:29:08.699Z,70.45
2023-02-07T05:31:53.751Z,69.66
2023-02-07T05:34:20.119Z,69.38
2023-02-07T05:36:46.520Z,70.38
2023-02-07T05:39:12.886Z,70.62
2023-02-07T05:41:39.220Z,70.72
2023-02-07T05:44:06.897Z,70.91
2023-02-07T05:46:33.305Z,70.59
2023-02-07T05:48:59.668Z,71.09
2023-02-07T05:51:26.029Z,71.50
2023-02-07T05:53:52.384Z,70.75
2023-02-07T05:56:18.684Z,71.26
2023-02-07T05:58:45.003Z,70.90
2023-02-07T06:01:11.332Z,70.76
2023-02-07T06:03:37.789Z,71.60
2023-02-07T06:06:04.418Z,71.11
2023-02-07T06:08:30.778Z,72.23
2023-02-07T06:10:57.088Z,71.93
2023-02-07T06:13:23.478Z,71.87
2023-02-07T06:15:49.883Z,70.93
2023-02-07T06:18:16.238Z,71.63
2023-02-07T06:20:42.578Z,71.82
2023-02-07T06:23:08.900Z,71.16
2023-02-07T06:25:35.218Z,71.59
2023-02-07T06:28:01.788Z,71.62
2023-02-07T06:30:28.206Z,71.86
2023-02-07T06:32:54.539Z,71.28
2023-02-07T06:35:20.971Z,71.54
2023-02-07T06:37:47.304Z,71.57
2023-02-07T06:40:13.927Z,71.49
2023-02-07T06:42:40.233Z,71.71
2023-02-07T06:45:07.043Z,71.96
2023-02-07T06:47:33.502Z,72.04
2023-02-07T06:49:59.871Z,71.81
2023-02-07T06:52:26.268Z,72.06
2023-02-07T06:54:52.640Z,72.10
2023-02-07T06:57:18.959Z,72.54
2023-02-07T06:59:45.450Z,71.42
2023-02-07T07:02:12.974Z,71.93
2023-02-07T07:04:39.379Z,72.19
2023-02-07T07:07:06.187Z,71.15
2023-02-07T07:09:32.615Z,72.09
2023-02-07T07:11:59.278Z,72.87
2023-02-07T07:14:25.682Z,72.91
2023-02-07T07:16:52.013Z,73.36
2023-02-07T07:19:18.409Z,72.66
2023-02-07T07:21:44.753Z,72.67
2023-02-07T07:24:11.083Z,71.38
2023-02-07T07:27:09.779Z,71.55
2023-02-07T07:32:42.140Z,71.75
2023-02-07T07:35:10.609Z,71.48
2023-02-07T07:37:39.186Z,71.26
2023-02-07T07:40:06.017Z,71.35
2023-02-07T07:42:36.635Z,71.23
2023-02-07T07:45:03.749Z,71.41
2023-02-07T07:47:30.167Z,71.24
2023-02-07T07:49:56.548Z,71.19
2023-02-07T07:52:22.909Z,70.04
2023-02-07T07:54:49.221Z,69.99
2023-02-07T07:57:15.560Z,70.66
2023-02-07T07:59:41.929Z,70.27
2023-02-07T08:02:14.989Z,70.16
2023-02-07T08:04:41.368Z,70.26
2023-02-07T08:07:09.075Z,69.23
2023-02-07T08:09:35.484Z,69.97
2023-02-07T08:12:01.929Z,68.98
2023-02-07T08:14:29.172Z,69.27
2023-02-07T08:16:55.628Z,69.05
2023-02-07T08:19:22.080Z,68.46
2023-02-07T08:21:48.420Z,68.82
2023-02-07T08:24:15.258Z,68.23
2023-02-07T08:26:43.253Z,68.74
2023-02-07T08:29:11.339Z,67.56
2023-02-07T08:31:38.958Z,67.38
2023-02-07T08:34:05.885Z,68.00
2023-02-07T08:36:32.853Z,66.72
2023-02-07T08:38:59.274Z,65.99
2023-02-07T08:41:25.591Z,66.55
2023-02-07T08:44:24.008Z,65.91
2023-02-07T08:46:56.664Z,65.85
2023-02-07T08:49:23.269Z,64.76
2023-02-07T08:51:49.705Z,64.19
2023-02-07T08:54:16.048Z,64.88
2023-02-07T08:56:42.423Z,65.30
2023-02-07T08:59:08.767Z,64.59
2023-02-07T09:01:35.292Z,64.36
2023-02-07T09:04:01.665Z,63.76
2023-02-07T09:06:28.465Z,64.52
2023-02-07T09:08:54.901Z,63.67
2023-02-07T09:11:22.007Z,63.96
2023-02-07T09:13:49.099Z,63.20
2023-02-07T09:16:15.707Z,63.23
2023-02-07T09:18:42.263Z,62.47
2023-02-07T09:21:08.875Z,62.57
2023-02-07T09:23:35.809Z,62.48
2023-02-07T09:26:04.954Z,62.10
2023-02-07T09:28:31.927Z,62.13
2023-02-07T09:30:58.367Z,61.46
2023-02-07T09:33:24.839Z,61.50
2023-02-07T09:35:51.975Z,61.77
2023-02-07T09:38:23.649Z,61.56
2023-02-07T09:40:52.202Z,62.88
2023-02-07T09:43:55.228Z,61.42
2023-02-07T09:46:28.250Z,61.71
2023-02-07T09:49:04.528Z,61.33
2023-02-07T09:51:34.325Z,60.38
2023-02-07T09:54:02.939Z,60.84
2023-02-07T09:56:31.104Z,60.15
2023-02-07T09:59:27.047Z,59.06
2023-02-07T10:01:59.100Z,58.84
2023-02-07T10:04:38.272Z,58.11
2023-02-07T10:07:07.980Z,58.27
2023-02-07T10:09:45.395Z,58.01
2023-02-07T10:12:26.757Z,57.36
2023-02-07T10:15:20.413Z,57.71
2023-02-07T10:18:10.408Z,56.58
2023-02-07T10:20:44.285Z,57.16
2023-02-07T10:23:32.507Z,57.13
2023-02-07T10:26:32.742Z,56.56
2023-02-07T10:29:43.760Z,56.91
2023-02-07T10:32:33.129Z,54.92
2023-02-07T10:35:08.765Z,55.66
2023-02-07T10:37:39.471Z,55.05
2023-02-07T10:40:34.947Z,55.72
2023-02-07T10:43:25.244Z,53.90
2023-02-07T10:46:00.827Z,54.04
2023-02-07T10:48:32.847Z,54.72
2023-02-07T10:51:34.587Z,54.30
2023-02-07T10:54:03.787Z,52.57
2023-02-07T10:56:33.278Z,53.02
2023-02-07T10:59:00.007Z,53.39
2023-02-07T11:01:29.236Z,52.78
2023-02-07T11:03:56.904Z,53.08
2023-02-07T11:06:32.156Z,52.31
2023-02-07T11:09:20.332Z,51.53
2023-02-07T11:11:52.328Z,51.11
2023-02-07T11:14:28.000Z,48.47
2023-02-07T11:16:58.820Z,48.65
2023-02-07T11:19:30.568Z,47.24
2023-02-07T11:22:20.527Z,48.08
2023-02-07T11:24:48.985Z,48.58
2023-02-07T11:27:22.109Z,48.02
2023-02-07T11:30:06.750Z,47.72
2023-02-07T11:32:35.361Z,46.44
2023-02-07T11:35:09.314Z,44.84
2023-02-07T11:37:47.506Z,44.77
2023-02-07T11:40:23.198Z,44.62
2023-02-07T11:42:59.376Z,43.54
2023-02-07T11:45:27.028Z,43.96
2023-02-07T11:47:57.365Z,41.91
2023-02-07T11:50:39.570Z,40.79
2023-02-07T11:53:07.906Z,41.91
2023-02-07T11:55:41.563Z,41.26
2023-02-07T11:58:58.615Z,42.20
2023-02-07T12:01:30.036Z,42.86
2023-02-07T12:04:19.032Z,44.20
2023-02-07T12:06:59.172Z,45.18
2023-02-07T12:09:47.255Z,45.42
2023-02-07T12:12:19.898Z,46.38
2023-02-07T12:14:58.260Z,46.11
2023-02-07T12:17:37.759Z,44.62
2023-02-07T12:20:23.414Z,44.34
2023-02-07T12:23:40.864Z,44.99
2023-02-07T12:26:18.408Z,44.85
2023-02-07T12:29:13.767Z,45.03
2023-02-07T12:31:56.686Z,45.12
2023-02-07T12:34:32.167Z,45.91
2023-02-07T12:37:20.925Z,45.78
2023-02-07T12:40:30.107Z,46.37
2023-02-07T12:43:02.696Z,44.14
2023-02-07T12:46:01.420Z,43.08
2023-02-07T12:48:50.024Z,41.88
2023-02-07T12:51:33.330Z,40.73
2023-02-07T12:54:17.288Z,40.70
2023-02-07T12:57:02.259Z,40.49
2023-02-07T12:59:52.957Z,38.27
2023-02-07T13:02:22.185Z,37.41
2023-02-07T13:05:19.640Z,36.60
2023-02-07T13:08:07.005Z,35.76
2023-02-07T13:10:53.973Z,36.43
2023-02-07T13:13:20.237Z,35.97
2023-02-07T13:15:57.174Z,34.79
2023-02-07T13:18:40.971Z,31.72
2023-02-07T13:21:24.928Z,31.75
2023-02-07T13:23:51.326Z,32.11
2023-02-07T13:26:22.291Z,31.32
2023-02-07T13:28:56.150Z,33.20
2023-02-07T13:31:37.397Z,32.22
2023-02-07T13:34:04.415Z,31.77
2023-02-07T13:36:36.575Z,32.25
2023-02-07T13:39:40.186Z,29.93
2023-02-07T13:42:15.444Z,31.13
2023-02-07T13:45:23.389Z,30.92
2023-02-07T13:48:33.005Z,30.53
2023-02-07T13:51:24.187Z,30.19
2023-02-07T13:54:29.254Z,31.36
2023-02-07T13:57:15.344Z,32.05
2023-02-07T13:59:42.747Z,31.38
2023-02-07T14:02:22.809Z,31.60
2023-02-07T14:04:55.570Z,31.47
2023-02-07T14:07:29.543Z,30.76
2023-02-07T14:09:58.431Z,30.24
2023-02-07T14:12:28.884Z,31.30
2023-02-07T14:15:16.222Z,32.31
2023-02-07T14:17:42.579Z,31.48
2023-02-07T14:20:35.645Z,33.62
2023-02-07T14:23:08.207Z,31.13
2023-02-07T14:25:34.850Z,31.46
2023-02-07T14:28:08.889Z,30.64
2023-02-07T14:30:38.196Z,32.76
2023-02-07T14:33:11.627Z,32.53
2023-02-07T14:36:07.087Z,32.84
2023-02-07T14:38:38.644Z,32.80
2023-02-07T14:41:11.304Z,33.95
2023-02-07T14:44:08.555Z,34.04
2023-02-07T14:46:42.127Z,34.77
2023-02-07T14:49:14.709Z,35.28
2023-02-07T14:51:57.701Z,35.17
2023-02-07T15:01:17.632Z,35.04
2023-02-07T15:07:55.155Z,33.90
2023-02-07T15:10:25.923Z,34.47
2023-02-07T15:12:56.308Z,33.36
2023-02-07T15:16:05.218Z,34.25
2023-02-07T15:18:39.166Z,35.65
2023-02-07T15:21:07.451Z,35.16
2023-02-07T15:23:33.997Z,36.08
2023-02-07T15:26:06.027Z,35.28
2023-02-07T15:28:32.909Z,35.51
2023-02-07T15:31:12.762Z,36.88
2023-02-07T15:33:41.207Z,36.88
2023-02-07T15:36:26.184Z,37.28
2023-02-07T15:38:52.749Z,37.35
2023-02-07T15:41:19.208Z,37.45
2023-02-07T15:44:06.020Z,37.89
2023-02-07T15:46:52.739Z,38.75
2023-02-07T15:49:40.665Z,37.76
2023-02-07T15:52:25.364Z,38.16
2023-02-07T15:54:54.364Z,38.66
2023-02-07T15:57:30.074Z,38.83
2023-02-07T16:00:02.351Z,38.60
2023-02-07T16:02:31.761Z,40.21
2023-02-07T16:05:09.646Z,39.62
2023-02-07T16:07:37.574Z,40.14
2023-02-07T16:10:20.182Z,39.14
2023-02-07T16:12:53.036Z,38.78
2023-02-07T16:15:33.472Z,39.31
2023-02-07T16:18:01.675Z,40.72
2023-02-07T16:20:31.222Z,40.73
2023-02-07T16:23:01.419Z,40.92
2023-02-07T16:25:31.514Z,41.58
2023-02-07T16:27:58.650Z,41.53
2023-02-07T16:30:27.693Z,41.50
2023-02-07T16:32:54.076Z,41.34
2023-02-07T16:35:27.522Z,42.37
2023-02-07T16:37:54.418Z,42.01
2023-02-07T16:40:26.500Z,44.34
2023-02-07T16:42:53.886Z,44.05
2023-02-07T16:45:23.716Z,44.13
2023-02-07T16:47:50.794Z,45.35
2023-02-07T16:50:24.212Z,46.16
2023-02-07T16:52:52.401Z,48.09
2023-02-07T16:55:20.743Z,47.10
2023-02-07T16:57:50.745Z,48.09
2023-02-07T17:00:21.071Z,49.71
2023-02-07T17:02:50.246Z,49.50
2023-02-07T17:05:18.134Z,50.61
2023-02-07T17:07:46.538Z,50.70
2023-02-07T17:13:45.142Z,50.59
2023-02-07T17:16:13.322Z,50.46
2023-02-07T17:18:40.836Z,50.84
2023-02-07T17:21:25.363Z,51.86
2023-02-07T17:23:54.267Z,52.20
2023-02-07T17:26:49.088Z,51.99
2023-02-07T17:29:19.591Z,53.08
2023-02-07T17:31:46.358Z,52.35
2023-02-07T17:34:13.251Z,52.37
2023-02-07T17:36:45.048Z,52.44
2023-02-07T17:39:13.574Z,53.16
2023-02-07T17:41:40.038Z,53.76
2023-02-07T17:44:06.611Z,54.15
2023-02-07T17:46:33.413Z,54.50
2023-02-07T17:49:00.270Z,55.04
2023-02-07T17:51:28.648Z,54.91
2023-02-07T17:53:58.377Z,54.07
2023-02-07T17:56:27.902Z,54.57
2023-02-07T17:58:56.152Z,54.59
2023-02-07T18:01:23.910Z,55.17
2023-02-07T18:03:52.320Z,55.71
2023-02-07T18:06:20.555Z,55.35
2023-02-07T18:08:47.120Z,55.36
2023-02-07T18:11:14.289Z,55.41
2023-02-07T18:13:41.286Z,55.40
2023-02-07T18:16:08.326Z,56.33
2023-02-07T18:18:35.539Z,56.26
2023-02-07T18:21:04.844Z,56.68
2023-02-07T18:23:31.267Z,56.93
2023-02-07T18:25:58.170Z,57.14
2023-02-07T18:28:24.597Z,57.20
2023-02-07T18:30:51.289Z,57.27
2023-02-07T18:33:19.269Z,58.18
2023-02-07T18:35:46.306Z,58.13
2023-02-07T18:38:13.001Z,58.85
2023-02-07T18:40:40.999Z,58.22
2023-02-07T18:43:07.591Z,59.07
2023-02-07T18:45:36.435Z,59.49
2023-02-07T18:48:03.637Z,59.22
2023-02-07T18:50:30.016Z,59.64
2023-02-07T18:52:56.346Z,59.04
2023-02-07T18:55:22.700Z,60.42
2023-02-07T18:57:49.115Z,60.48
2023-02-07T19:00:15.711Z,60.30
2023-02-07T19:02:42.249Z,60.06
2023-02-07T19:05:08.796Z,60.00
2023-02-07T19:07:35.146Z,60.69
2023-02-07T19:10:01.778Z,61.39
2023-02-07T19:12:28.146Z,61.68
2023-02-07T19:14:54.490Z,61.25
2023-02-07T19:17:20.850Z,61.29
2023-02-07T19:19:47.220Z,62.15
2023-02-07T19:22:14.206Z,61.07
2023-02-07T19:24:42.072Z,59.94
2023-02-07T19:27:09.873Z,59.92
2023-02-07T19:29:36.347Z,60.09
2023-02-07T19:32:06.130Z,59.86
2023-02-07T19:34:33.422Z,59.47
2023-02-07T19:36:59.824Z,60.01
2023-02-07T19:39:26.345Z,60.00
2023-02-07T19:41:52.682Z,60.98
2023-02-07T19:44:19.086Z,60.56
2023-02-07T19:46:45.821Z,60.54
2023-02-07T19:49:13.564Z,60.98
2023-02-07T19:51:40.125Z,60.26
2023-02-07T19:54:06.562Z,60.21
2023-02-07T19:56:33.680Z,60.14
2023-02-07T19:59:03.016Z,59.62
2023-02-07T20:01:30.874Z,60.14
2023-02-07T20:03:58.224Z,59.60
2023-02-07T20:06:29.148Z,60.20
2023-02-07T20:08:56.974Z,60.83
2023-02-07T20:11:23.857Z,60.14
2023-02-07T20:13:52.809Z,59.73
2023-02-07T20:16:24.359Z,60.10
2023-02-07T20:18:52.190Z,59.92
2023-02-07T20:21:24.224Z,60.44
2023-02-07T20:23:52.187Z,59.53
2023-02-07T20:26:24.215Z,60.37
2023-02-07T20:28:50.777Z,60.63
2023-02-07T20:31:21.042Z,60.17
2023-02-07T20:33:47.456Z,60.77
2023-02-07T20:36:16.517Z,60.87
2023-02-07T20:38:44.982Z,61.05
2023-02-07T20:41:15.278Z,61.49
2023-02-07T20:43:42.864Z,61.91
2023-02-07T20:46:14.147Z,61.52
2023-02-07T20:48:41.009Z,61.93
2023-02-07T20:51:12.339Z,62.20
2023-02-07T20:53:40.190Z,63.21
2023-02-07T20:56:12.804Z,63.72
2023-02-07T20:58:40.093Z,63.79
2023-02-07T21:01:08.882Z,63.40
2023-02-07T21:03:35.560Z,64.71
2023-02-07T21:06:02.266Z,65.26
2023-02-07T21:08:28.828Z,65.85
2023-02-07T21:10:55.518Z,65.72
2023-02-07T21:13:21.838Z,66.31
2023-02-07T21:16:01.540Z,65.76
2023-02-07T21:18:28.980Z,65.49
2023-02-07T21:20:55.646Z,66.00
2023-02-07T21:23:21.959Z,66.11
2023-02-07T21:25:48.299Z,65.88
2023-02-07T21:28:14.714Z,66.01
2023-02-07T21:30:41.504Z,66.05
2023-02-07T21:33:08.226Z,66.95
2023-02-07T21:35:34.802Z,66.73
2023-02-07T21:38:01.202Z,66.62
2023-02-07T21:40:27.572Z,66.78
2023-02-07T21:42:55.047Z,67.02
2023-02-07T21:45:21.374Z,67.16
2023-02-07T21:47:48.051Z,66.98
2023-02-07T21:50:14.523Z,66.84
2023-02-07T21:52:40.867Z,66.81
2023-02-07T21:55:07.421Z,66.76
2023-02-07T21:57:33.734Z,66.00
2023-02-07T22:00:00.060Z,65.81
2023-02-07T22:02:26.423Z,65.71
2023-02-07T22:04:52.823Z,65.39
2023-02-07T22:07:19.164Z,65.85
2023-02-07T22:09:45.505Z,66.12
2023-02-07T22:12:11.854Z,66.15
2023-02-07T22:14:38.180Z,66.10
2023-02-07T22:17:04.664Z,66.35
2023-02-07T22:19:30.994Z,65.40
2023-02-07T22:21:58.904Z,66.06
2023-02-07T22:24:25.301Z,65.93
2023-02-07T22:26:53.677Z,65.64
2023-02-07T22:29:20.000Z,65.47
2023-02-07T22:31:46.501Z,65.72
2023-02-07T22:34:13.863Z,64.24
2023-02-07T22:36:43.088Z,65.16
2023-02-07T22:39:11.653Z,65.54
2023-02-07T22:41:37.990Z,65.74
2023-02-07T22:44:04.948Z,64.99
2023-02-07T22:46:31.408Z,64.85
2023-02-07T22:48:58.999Z,65.05
2023-02-07T22:51:32.256Z,65.01
2023-02-07T22:54:01.485Z,65.29
2023-02-07T22:56:28.191Z,65.29
2023-02-07T22:58:55.076Z,65.47
2023-02-07T23:01:26.300Z,65.89
2023-02-07T23:03:53.270Z,65.48
2023-02-07T23:06:20.808Z,65.67
2023-02-07T23:08:49.216Z,65.89
2023-02-07T23:11:17.950Z,65.90
2023-02-07T23:13:44.595Z,66.32
2023-02-07T23:16:13.267Z,66.62
2023-02-07T23:18:39.873Z,66.62
2023-02-07T23:21:09.445Z,67.11
2023-02-07T23:23:35.895Z,67.46
2023-02-07T23:26:02.707Z,66.89
2023-02-07T23:28:29.066Z,67.62
2023-02-07T23:30:55.560Z,66.96
2023-02-07T23:33:21.923Z,67.22
2023-02-07T23:35:48.222Z,67.48
2023-02-07T23:38:14.537Z,67.48
2023-02-07T23:40:41.118Z,67.66
2023-02-07T23:43:07.615Z,67.60
2023-02-07T23:45:33.925Z,67.65
2023-02-07T23:48:02.222Z,67.33
2023-02-07T23:50:29.862Z,68.05
2023-02-07T23:52:56.164Z,67.77
2023-02-07T23:55:22.567Z,67.69
2023-02-07T23:57:48.882Z,68.38
